Time;durP1;ratioP1;P1;durP2;ratioP2;P2;SDS_P1;SDS_P2;PMS_P1;PMS_P2;Temp;Humidity;BMP_temperature;BMP_pressure;BME280_temperature;BME280_humidity;BME280_pressure;Samples;Min_cycle;Max_cycle;Signal;HPM_P1;HPM_P2
2023/08/07 00:00:15;;;;;;;;;;;22.70;99.90;;;;;;5136199;27;19904;-75
2023/08/07 00:02:41;;;;;;;;;;;22.70;99.90;;;;;;5136192;27;20297;-75
2023/08/07 00:05:07;;;;;;;;;;;22.80;99.90;;;;;;5136333;27;19908;-75
2023/08/07 00:07:32;;;;;;;;;;;22.70;99.90;;;;;;5136226;27;20007;-75
2023/08/07 00:10:00;;;;;;;;;;;22.70;99.90;;;;;;5136030;27;20223;-74
2023/08/07 00:12:26;;;;;;;;;;;22.70;99.90;;;;;;5135699;27;19904;-75
2023/08/07 00:14:52;;;;;;;;;;;22.70;99.90;;;;;;5136306;27;19904;-75
2023/08/07 00:17:17;;;;;;;;;;;22.80;99.90;;;;;;5135868;27;19912;-75
2023/08/07 00:19:43;;;;;;;;;;;22.80;99.90;;;;;;5134451;27;19935;-75
2023/08/07 00:22:09;;;;;;;;;;;22.70;99.90;;;;;;5136006;27;19903;-75
2023/08/07 00:24:35;;;;;;;;;;;22.70;99.90;;;;;;5134334;27;19939;-75
2023/08/07 00:27:01;;;;;;;;;;;22.70;99.90;;;;;;5134370;27;19903;-75
2023/08/07 00:29:27;;;;;;;;;;;22.70;99.90;;;;;;5135490;27;19907;-75
2023/08/07 00:31:52;;;;;;;;;;;22.70;99.90;;;;;;5135529;27;19946;-75
2023/08/07 00:34:18;;;;;;;;;;;22.60;99.90;;;;;;5136004;27;20231;-75
2023/08/07 00:36:47;;;;;;;;;;;22.60;99.90;;;;;;5135125;27;19968;-75
2023/08/07 00:39:12;;;;;;;;;;;22.60;99.90;;;;;;5134059;27;19989;-76
2023/08/07 00:41:38;;;;;;;;;;;22.60;99.90;;;;;;5135743;27;20330;-75
2023/08/07 00:44:06;;;;;;;;;;;22.60;99.90;;;;;;5135100;27;19903;-76
2023/08/07 00:46:31;;;;;;;;;;;22.50;99.90;;;;;;5151281;27;20271;-75
2023/08/07 00:48:57;;;;;;;;;;;22.50;99.90;;;;;;5135696;27;19904;-75
2023/08/07 00:51:23;;;;;;;;;;;22.40;99.90;;;;;;5135401;27;19946;-75
2023/08/07 00:53:49;;;;;;;;;;;22.40;99.90;;;;;;5135757;27;19975;-75
2023/08/07 00:56:15;;;;;;;;;;;22.40;99.90;;;;;;5135188;27;19938;-74
2023/08/07 00:58:41;;;;;;;;;;;22.50;99.90;;;;;;5134865;27;19949;-75
2023/08/07 01:01:07;;;;;;;;;;;22.50;99.90;;;;;;5135584;27;19960;-75
2023/08/07 01:03:33;;;;;;;;;;;22.50;99.90;;;;;;5134965;27;19903;-74
2023/08/07 01:05:58;;;;;;;;;;;22.50;99.90;;;;;;5134991;27;19903;-75
2023/08/07 01:08:25;;;;;;;;;;;22.50;99.90;;;;;;5134861;27;19956;-75
2023/08/07 01:10:50;;;;;;;;;;;22.50;99.90;;;;;;5135005;27;19904;-74
2023/08/07 01:13:29;;;;;;;;;;;22.50;99.90;;;;;;5133387;27;19956;-74
2023/08/07 01:15:57;;;;;;;;;;;22.50;99.90;;;;;;5133444;27;20243;-74
2023/08/07 01:18:23;;;;;;;;;;;22.40;99.90;;;;;;5134676;27;19963;-74
2023/08/07 01:20:49;;;;;;;;;;;22.40;99.90;;;;;;5135216;27;20343;-74
2023/08/07 01:23:14;;;;;;;;;;;22.30;99.90;;;;;;5134519;27;19969;-75
2023/08/07 01:25:40;;;;;;;;;;;22.30;99.90;;;;;;5132549;27;19908;-75
2023/08/07 01:28:13;;;;;;;;;;;22.20;99.90;;;;;;5133119;27;19910;-75
2023/08/07 01:30:42;;;;;;;;;;;22.20;99.90;;;;;;5133236;27;19949;-75
2023/08/07 01:33:22;;;;;;;;;;;22.30;99.90;;;;;;5134449;27;19929;-75
2023/08/07 01:35:51;;;;;;;;;;;22.30;99.90;;;;;;5134759;27;20290;-74
2023/08/07 01:38:17;;;;;;;;;;;22.20;99.90;;;;;;5134779;27;20018;-75
2023/08/07 01:40:44;;;;;;;;;;;22.20;99.90;;;;;;5134463;27;19903;-75
2023/08/07 01:43:10;;;;;;;;;;;22.10;99.90;;;;;;5134158;27;19904;-75
2023/08/07 01:45:35;;;;;;;;;;;22.00;99.90;;;;;;5134323;27;19913;-75
2023/08/07 01:48:01;;;;;;;;;;;22.00;99.90;;;;;;5134616;27;20010;-75
2023/08/07 01:50:27;;;;;;;;;;;22.00;99.90;;;;;;5134192;27;19915;-75
2023/08/07 01:52:53;;;;;;;;;;;22.00;99.90;;;;;;5134535;27;19908;-75
2023/08/07 01:55:20;;;;;;;;;;;21.90;99.90;;;;;;5134116;27;19903;-75
2023/08/07 01:57:46;;;;;;;;;;;21.90;99.90;;;;;;5132147;27;20382;-75
2023/08/07 02:00:11;;;;;;;;;;;21.90;99.90;;;;;;5133689;27;19915;-75
2023/08/07 02:02:38;;;;;;;;;;;21.80;99.90;;;;;;5134103;27;19992;-74
2023/08/07 02:05:04;;;;;;;;;;;21.70;99.90;;;;;;5134151;27;19909;-75
2023/08/07 02:07:30;;;;;;;;;;;21.50;99.90;;;;;;5132579;27;19903;-75
2023/08/07 02:09:56;;;;;;;;;;;21.40;99.90;;;;;;5133901;27;19993;-75
2023/08/07 02:12:22;;;;;;;;;;;21.50;99.90;;;;;;5133946;27;19984;-75
2023/08/07 02:14:47;;;;;;;;;;;21.50;99.90;;;;;;5134302;27;19949;-75
2023/08/07 02:17:13;;;;;;;;;;;21.40;99.90;;;;;;5133732;27;19907;-75
2023/08/07 02:19:39;;;;;;;;;;;21.50;99.90;;;;;;5134080;27;20340;-74
2023/08/07 02:22:05;;;;;;;;;;;21.50;99.90;;;;;;5134093;27;19994;-75
2023/08/07 02:24:31;;;;;;;;;;;21.50;99.90;;;;;;5133779;27;20351;-75
2023/08/07 02:26:56;;;;;;;;;;;21.50;99.90;;;;;;5132358;28;20367;-75
2023/08/07 02:29:22;;;;;;;;;;;21.60;99.90;;;;;;5133624;28;19903;-75
2023/08/07 02:31:48;;;;;;;;;;;21.50;99.90;;;;;;5133554;27;19903;-74
2023/08/07 02:34:14;;;;;;;;;;;21.50;99.90;;;;;;5132144;28;19904;-75
2023/08/07 02:36:40;;;;;;;;;;;21.50;99.90;;;;;;5135350;27;19915;-74
2023/08/07 02:39:06;;;;;;;;;;;21.60;99.90;;;;;;5136360;27;19946;-75
2023/08/07 02:41:32;;;;;;;;;;;21.70;99.90;;;;;;5137699;27;19904;-75
2023/08/07 02:43:58;;;;;;;;;;;21.70;99.90;;;;;;5137615;27;20271;-74
2023/08/07 02:46:23;;;;;;;;;;;21.70;99.90;;;;;;5137692;27;19903;-75
2023/08/07 02:48:49;;;;;;;;;;;21.70;99.90;;;;;;5137870;27;19903;-75
2023/08/07 02:51:15;;;;;;;;;;;21.70;99.90;;;;;;5137564;27;19903;-73
2023/08/07 02:53:41;;;;;;;;;;;21.70;99.90;;;;;;5137491;27;19903;-75
2023/08/07 02:56:07;;;;;;;;;;;21.70;99.90;;;;;;5135976;27;19914;-76
2023/08/07 02:58:32;;;;;;;;;;;21.70;99.90;;;;;;5135854;27;19916;-74
2023/08/07 03:01:06;;;;;;;;;;;21.70;99.90;;;;;;5137365;27;20351;-74
2023/08/07 03:03:32;;;;;;;;;;;21.60;99.90;;;;;;5137605;27;19903;-75
2023/08/07 03:05:57;;;;;;;;;;;21.60;99.90;;;;;;5137409;27;19967;-76
2023/08/07 03:08:23;;;;;;;;;;;21.60;99.90;;;;;;5137317;27;19907;-75
2023/08/07 03:10:50;;;;;;;;;;;21.60;99.90;;;;;;5135846;27;19986;-75
2023/08/07 03:13:16;;;;;;;;;;;21.60;99.90;;;;;;5137033;27;19964;-75
2023/08/07 03:15:42;;;;;;;;;;;21.60;99.90;;;;;;5137543;27;20343;-75
2023/08/07 03:18:08;;;;;;;;;;;21.60;99.90;;;;;;5137310;27;19957;-75
2023/08/07 03:20:36;;;;;;;;;;;21.60;99.90;;;;;;5137253;27;19926;-75
2023/08/07 03:23:02;;;;;;;;;;;21.50;99.90;;;;;;5136962;27;19903;-75
2023/08/07 03:25:37;;;;;;;;;;;21.50;99.90;;;;;;5136844;27;19914;-75
2023/08/07 03:28:03;;;;;;;;;;;21.40;99.90;;;;;;5135317;27;20352;-75
2023/08/07 03:30:28;;;;;;;;;;;21.40;99.90;;;;;;5137304;27;19911;-76
2023/08/07 03:32:54;;;;;;;;;;;21.30;99.90;;;;;;5136860;27;19945;-75
2023/08/07 03:35:20;;;;;;;;;;;21.30;99.90;;;;;;5135349;27;19915;-75
2023/08/07 03:37:46;;;;;;;;;;;21.20;99.90;;;;;;5135023;27;20359;-74
2023/08/07 03:40:12;;;;;;;;;;;21.20;99.90;;;;;;5135577;27;19903;-75
2023/08/07 03:42:37;;;;;;;;;;;21.20;99.90;;;;;;5136958;27;20350;-76
2023/08/07 03:45:03;;;;;;;;;;;21.20;99.90;;;;;;5136543;27;19907;-74
2023/08/07 03:47:29;;;;;;;;;;;21.20;99.90;;;;;;5136063;27;19904;-76
2023/08/07 03:49:55;;;;;;;;;;;21.20;99.90;;;;;;5137296;27;19997;-75
2023/08/07 03:52:21;;;;;;;;;;;21.10;99.90;;;;;;5135154;27;19907;-75
2023/08/07 03:54:46;;;;;;;;;;;21.10;99.90;;;;;;5136988;27;19904;-74
2023/08/07 03:57:12;;;;;;;;;;;21.10;99.90;;;;;;5134967;27;19973;-75
2023/08/07 03:59:38;;;;;;;;;;;21.00;99.90;;;;;;5136192;27;20355;-75
2023/08/07 04:02:04;;;;;;;;;;;21.00;99.90;;;;;;5135004;27;19927;-75
2023/08/07 04:04:30;;;;;;;;;;;21.00;99.90;;;;;;5134904;27;20267;-75
2023/08/07 04:06:56;;;;;;;;;;;21.10;99.90;;;;;;5134774;27;19904;-75
2023/08/07 04:09:21;;;;;;;;;;;21.00;99.90;;;;;;5136075;27;19942;-75
2023/08/07 04:11:47;;;;;;;;;;;21.10;99.90;;;;;;5134962;27;19918;-75
2023/08/07 04:14:13;;;;;;;;;;;21.20;99.90;;;;;;5135874;27;19923;-75
2023/08/07 04:16:39;;;;;;;;;;;21.20;99.90;;;;;;5136181;27;19936;-75
2023/08/07 04:19:07;;;;;;;;;;;21.20;99.90;;;;;;5135946;27;19987;-75
2023/08/07 04:21:33;;;;;;;;;;;21.30;99.90;;;;;;5136032;27;19946;-75
2023/08/07 04:24:00;;;;;;;;;;;21.30;99.90;;;;;;5135867;27;19946;-74
2023/08/07 04:26:26;;;;;;;;;;;21.30;99.90;;;;;;5135816;27;19948;-75
2023/08/07 04:28:52;;;;;;;;;;;21.20;99.90;;;;;;5135551;27;20367;-75
2023/08/07 04:31:18;;;;;;;;;;;21.10;99.90;;;;;;5134279;27;19957;-75
2023/08/07 04:33:43;;;;;;;;;;;21.20;99.90;;;;;;5134209;27;19952;-75
2023/08/07 04:36:09;;;;;;;;;;;21.10;99.90;;;;;;5135302;27;19911;-75
2023/08/07 04:38:35;;;;;;;;;;;21.20;99.90;;;;;;5134035;27;19911;-75
2023/08/07 04:41:01;;;;;;;;;;;21.30;99.90;;;;;;5133640;27;19903;-75
2023/08/07 04:43:27;;;;;;;;;;;21.30;99.90;;;;;;5135263;27;20061;-76
2023/08/07 04:45:53;;;;;;;;;;;21.30;99.90;;;;;;5135785;27;19972;-76
2023/08/07 04:48:20;;;;;;;;;;;21.30;99.90;;;;;;5135539;27;20343;-75
2023/08/07 04:50:46;;;;;;;;;;;21.30;99.90;;;;;;5135867;27;19905;-75
2023/08/07 04:53:12;;;;;;;;;;;21.40;99.90;;;;;;5135127;27;20274;-75
2023/08/07 04:55:38;;;;;;;;;;;21.40;99.90;;;;;;5135245;27;19907;-75
2023/08/07 04:58:04;;;;;;;;;;;21.50;99.90;;;;;;5134632;27;19919;-77
2023/08/07 05:00:30;;;;;;;;;;;21.50;99.90;;;;;;5134366;27;19903;-75
2023/08/07 05:02:56;;;;;;;;;;;21.60;99.90;;;;;;5134813;27;20347;-76
2023/08/07 05:05:23;;;;;;;;;;;21.70;99.90;;;;;;5134858;27;19903;-75
2023/08/07 05:07:48;;;;;;;;;;;21.70;99.90;;;;;;5133508;27;20265;-75
2023/08/07 05:10:14;;;;;;;;;;;21.80;99.90;;;;;;5134862;27;20347;-75
2023/08/07 05:12:40;;;;;;;;;;;22.00;99.90;;;;;;5134405;27;19968;-75
2023/08/07 05:15:06;;;;;;;;;;;22.10;99.90;;;;;;5134902;27;20332;-75
2023/08/07 05:17:32;;;;;;;;;;;22.00;99.90;;;;;;5135043;27;19930;-75
2023/08/07 05:19:58;;;;;;;;;;;22.10;99.90;;;;;;5135011;27;20339;-76
2023/08/07 05:22:24;;;;;;;;;;;22.80;99.90;;;;;;5134522;27;19958;-75
2023/08/07 05:24:50;;;;;;;;;;;24.40;99.90;;;;;;5133022;27;20002;-76
2023/08/07 05:27:16;;;;;;;;;;;26.00;99.90;;;;;;5134110;27;19990;-76
2023/08/07 05:29:44;;;;;;;;;;;27.50;99.90;;;;;;5132842;27;19903;-76
2023/08/07 05:32:14;;;;;;;;;;;28.50;99.90;;;;;;5132839;27;20304;-76
2023/08/07 05:34:40;;;;;;;;;;;30.20;99.90;;;;;;5132771;27;19967;-76
2023/08/07 05:37:07;;;;;;;;;;;31.30;99.90;;;;;;5134133;27;20251;-76
2023/08/07 05:39:32;;;;;;;;;;;32.30;99.90;;;;;;5132750;27;19933;-76
2023/08/07 05:41:58;;;;;;;;;;;32.30;99.90;;;;;;5134291;27;19910;-76
2023/08/07 05:44:24;;;;;;;;;;;33.30;99.90;;;;;;5132689;27;20011;-76
2023/08/07 05:46:50;;;;;;;;;;;33.30;99.90;;;;;;5133971;27;20335;-76
2023/08/07 05:49:16;;;;;;;;;;;33.30;99.90;;;;;;5132666;27;19903;-77
2023/08/07 05:51:42;;;;;;;;;;;33.30;99.90;;;;;;5134284;27;19907;-76
2023/08/07 05:54:08;;;;;;;;;;;32.10;99.90;;;;;;5133935;27;19960;-76
2023/08/07 05:56:34;;;;;;;;;;;31.50;99.90;;;;;;5132418;27;19972;-77
2023/08/07 05:58:59;;;;;;;;;;;31.30;99.90;;;;;;5133731;27;20002;-77
2023/08/07 06:01:31;;;;;;;;;;;32.20;99.90;;;;;;5133879;27;20254;-76
2023/08/07 06:03:57;;;;;;;;;;;33.70;99.90;;;;;;5134064;27;19910;-76
2023/08/07 06:06:25;;;;;;;;;;;34.00;99.90;;;;;;5133734;27;19982;-76
2023/08/07 06:08:51;;;;;;;;;;;33.30;99.90;;;;;;5133424;27;19904;-76
2023/08/07 06:11:17;;;;;;;;;;;33.40;99.90;;;;;;5133577;27;19917;-76
2023/08/07 06:13:42;;;;;;;;;;;33.70;99.90;;;;;;5133445;27;19926;-77
2023/08/07 06:16:08;;;;;;;;;;;35.00;99.60;;;;;;5133670;27;19994;-76
2023/08/07 06:18:34;;;;;;;;;;;34.40;99.10;;;;;;5133704;27;19911;-76
2023/08/07 06:21:00;;;;;;;;;;;34.80;99.20;;;;;;5133577;27;19903;-75
2023/08/07 06:23:26;;;;;;;;;;;36.60;97.80;;;;;;5133860;27;19903;-76
2023/08/07 06:25:52;;;;;;;;;;;36.70;96.40;;;;;;5134013;28;19904;-78
2023/08/07 06:28:17;;;;;;;;;;;37.20;95.30;;;;;;5131862;28;19908;-75
2023/08/07 06:30:43;;;;;;;;;;;35.90;95.40;;;;;;5133522;27;20006;-77
2023/08/07 06:33:09;;;;;;;;;;;37.30;95.50;;;;;;5133350;28;19986;-76
2023/08/07 06:35:39;;;;;;;;;;;38.10;94.00;;;;;;5133739;28;19904;-75
2023/08/07 06:38:05;;;;;;;;;;;39.40;93.40;;;;;;5131708;28;20386;-75
2023/08/07 06:40:31;;;;;;;;;;;38.50;92.80;;;;;;5133509;27;20375;-75
2023/08/07 06:42:56;;;;;;;;;;;38.90;91.80;;;;;;5131704;28;19903;-76
2023/08/07 06:45:22;;;;;;;;;;;39.30;91.30;;;;;;5133016;28;19938;-75
2023/08/07 06:47:48;;;;;;;;;;;39.80;90.20;;;;;;5133469;27;20288;-75
2023/08/07 06:50:14;;;;;;;;;;;40.30;89.00;;;;;;5133732;27;19991;-76
2023/08/07 06:52:40;;;;;;;;;;;40.10;86.90;;;;;;5131651;28;19904;-76
2023/08/07 06:55:06;;;;;;;;;;;39.50;87.50;;;;;;5131685;28;19910;-76
2023/08/07 06:57:32;;;;;;;;;;;39.90;86.40;;;;;;5133144;27;19912;-77
2023/08/07 06:59:58;;;;;;;;;;;39.50;86.80;;;;;;5133014;27;19914;-76
2023/08/07 07:02:24;;;;;;;;;;;40.20;85.80;;;;;;5132983;28;20322;-76
2023/08/07 07:04:49;;;;;;;;;;;41.30;84.20;;;;;;5133116;28;19903;-76
2023/08/07 07:07:15;;;;;;;;;;;40.10;83.50;;;;;;5133176;27;20063;-76
2023/08/07 07:09:41;;;;;;;;;;;40.00;83.30;;;;;;5132975;27;20325;-76
2023/08/07 07:12:07;;;;;;;;;;;39.50;86.10;;;;;;5133042;28;19927;-76
2023/08/07 07:14:36;;;;;;;;;;;39.40;88.10;;;;;;5132795;27;20412;-77
2023/08/07 07:17:02;;;;;;;;;;;38.90;88.60;;;;;;5131550;28;19908;-77
2023/08/07 07:19:27;;;;;;;;;;;38.60;87.50;;;;;;5133119;27;19918;-76
2023/08/07 07:21:53;;;;;;;;;;;37.50;89.20;;;;;;5133035;27;20351;-76
2023/08/07 07:24:19;;;;;;;;;;;37.90;90.50;;;;;;5136118;27;20339;-76
2023/08/07 07:26:45;;;;;;;;;;;36.40;91.40;;;;;;5136721;27;19903;-76
2023/08/07 07:29:11;;;;;;;;;;;36.20;92.20;;;;;;5136446;27;19903;-76
2023/08/07 07:31:36;;;;;;;;;;;36.30;92.30;;;;;;5136710;27;19914;-75
2023/08/07 07:34:02;;;;;;;;;;;36.70;92.10;;;;;;5136572;27;19908;-76
2023/08/07 07:36:28;;;;;;;;;;;36.10;92.60;;;;;;5136688;27;19973;-76
2023/08/07 07:38:54;;;;;;;;;;;35.00;93.60;;;;;;5136554;27;20350;-75
2023/08/07 07:41:21;;;;;;;;;;;34.50;93.30;;;;;;5136426;27;19946;-74
2023/08/07 07:43:47;;;;;;;;;;;33.70;93.80;;;;;;5136338;27;19903;-76
2023/08/07 07:46:13;;;;;;;;;;;33.50;93.70;;;;;;5136297;27;19904;-75
2023/08/07 07:48:39;;;;;;;;;;;33.00;94.30;;;;;;5136141;27;19903;-76
2023/08/07 07:51:05;;;;;;;;;;;32.80;95.20;;;;;;5136859;27;19903;-76
2023/08/07 07:53:31;;;;;;;;;;;32.90;95.00;;;;;;5136318;27;19964;-76
2023/08/07 07:55:57;;;;;;;;;;;33.10;95.40;;;;;;5136505;27;19957;-76
2023/08/07 07:58:23;;;;;;;;;;;33.20;95.50;;;;;;5135712;27;19911;-76
2023/08/07 08:00:49;;;;;;;;;;;32.80;96.20;;;;;;5136263;27;19903;-76
2023/08/07 08:03:15;;;;;;;;;;;32.70;96.50;;;;;;5136007;27;19904;-76
2023/08/07 08:05:40;;;;;;;;;;;32.30;96.60;;;;;;5136423;27;20308;-76
2023/08/07 08:08:10;;;;;;;;;;;32.60;96.90;;;;;;5135773;27;19904;-76
2023/08/07 08:10:36;;;;;;;;;;;32.40;97.40;;;;;;5135596;27;19903;-76
2023/08/07 08:13:03;;;;;;;;;;;32.10;98.00;;;;;;5136002;27;19952;-77
2023/08/07 08:15:29;;;;;;;;;;;32.40;97.80;;;;;;5135932;27;19937;-77
2023/08/07 08:17:55;;;;;;;;;;;32.00;98.30;;;;;;5135878;27;19911;-76
2023/08/07 08:20:21;;;;;;;;;;;32.30;98.40;;;;;;5135724;27;19903;-76
2023/08/07 08:22:47;;;;;;;;;;;31.80;98.60;;;;;;5134206;27;19926;-76
2023/08/07 08:25:13;;;;;;;;;;;31.60;99.50;;;;;;5134307;27;20263;-75
2023/08/07 08:27:39;;;;;;;;;;;31.50;99.90;;;;;;5135620;27;19903;-75
2023/08/07 08:30:05;;;;;;;;;;;32.20;99.90;;;;;;5135144;27;19904;-76
2023/08/07 08:32:31;;;;;;;;;;;32.60;99.70;;;;;;5133796;27;19903;-75
2023/08/07 08:34:57;;;;;;;;;;;33.00;99.50;;;;;;5133450;27;20017;-76
2023/08/07 08:37:22;;;;;;;;;;;32.90;99.50;;;;;;5134807;27;19915;-75
2023/08/07 08:39:48;;;;;;;;;;;32.90;99.80;;;;;;5134921;27;19911;-76
2023/08/07 08:42:14;;;;;;;;;;;33.00;99.90;;;;;;5135165;27;19903;-75
2023/08/07 08:44:40;;;;;;;;;;;33.20;99.90;;;;;;5135064;27;19948;-76
2023/08/07 08:47:07;;;;;;;;;;;33.00;99.90;;;;;;5135079;27;20006;-76
2023/08/07 08:49:35;;;;;;;;;;;32.70;99.90;;;;;;5133611;27;19957;-75
2023/08/07 08:52:01;;;;;;;;;;;32.40;99.90;;;;;;5134886;27;19909;-75
2023/08/07 08:54:27;;;;;;;;;;;32.50;99.90;;;;;;5134939;27;19910;-75
2023/08/07 08:56:54;;;;;;;;;;;32.20;99.90;;;;;;5134678;27;19903;-75
2023/08/07 08:59:21;;;;;;;;;;;31.70;99.90;;;;;;5134838;27;19904;-75
2023/08/07 09:01:48;;;;;;;;;;;32.00;99.90;;;;;;5133426;27;20008;-74
2023/08/07 09:04:14;;;;;;;;;;;32.00;99.90;;;;;;5134913;27;19903;-75
2023/08/07 09:06:40;;;;;;;;;;;32.00;99.90;;;;;;5133216;27;19915;-75
2023/08/07 09:09:07;;;;;;;;;;;32.10;99.90;;;;;;5134587;27;19914;-75
2023/08/07 09:11:33;;;;;;;;;;;31.90;99.90;;;;;;5134567;27;19940;-76
2023/08/07 09:14:00;;;;;;;;;;;31.00;99.90;;;;;;5134495;27;19910;-75
2023/08/07 09:16:26;;;;;;;;;;;31.10;99.90;;;;;;5134856;27;20260;-75
2023/08/07 09:18:54;;;;;;;;;;;31.20;99.90;;;;;;5134348;27;19911;-75
2023/08/07 09:21:20;;;;;;;;;;;31.30;99.90;;;;;;5134565;27;19903;-74
2023/08/07 09:23:46;;;;;;;;;;;31.30;99.90;;;;;;5132857;27;19903;-75
2023/08/07 09:26:12;;;;;;;;;;;30.50;99.90;;;;;;5132878;27;19940;-75
2023/08/07 09:28:38;;;;;;;;;;;29.50;99.90;;;;;;5134124;27;19904;-75
2023/08/07 09:31:09;;;;;;;;;;;29.40;99.90;;;;;;5134156;27;20258;-77
2023/08/07 09:33:34;;;;;;;;;;;29.70;99.90;;;;;;5134621;27;20031;-75
2023/08/07 09:36:01;;;;;;;;;;;29.70;99.90;;;;;;5133818;27;20358;-75
2023/08/07 09:38:32;;;;;;;;;;;29.70;99.90;;;;;;5134256;27;19911;-74
2023/08/07 09:41:01;;;;;;;;;;;30.00;99.90;;;;;;5132890;27;19954;-73
2023/08/07 09:43:28;;;;;;;;;;;29.20;99.90;;;;;;5133835;27;19956;-75
2023/08/07 09:46:01;;;;;;;;;;;29.20;99.90;;;;;;5131946;27;19910;-75
2023/08/07 09:48:28;;;;;;;;;;;29.40;99.90;;;;;;5134091;27;19911;-76
2023/08/07 09:50:54;;;;;;;;;;;29.50;99.90;;;;;;5134211;27;19986;-74
2023/08/07 09:53:27;;;;;;;;;;;29.30;99.90;;;;;;5132411;27;19942;-74
2023/08/07 09:55:53;;;;;;;;;;;29.00;99.90;;;;;;5132320;27;19903;-75
2023/08/07 09:58:19;;;;;;;;;;;28.80;99.90;;;;;;5133885;27;20251;-74
2023/08/07 10:00:46;;;;;;;;;;;29.30;99.90;;;;;;5133750;27;19903;-75
2023/08/07 10:03:13;;;;;;;;;;;29.40;99.90;;;;;;5132564;27;20302;-75
2023/08/07 10:05:38;;;;;;;;;;;29.20;99.90;;;;;;5132160;27;19929;-74
2023/08/07 10:08:04;;;;;;;;;;;28.80;99.90;;;;;;5133677;27;20343;-74
2023/08/07 10:10:32;;;;;;;;;;;28.80;99.90;;;;;;5133765;27;19903;-74
2023/08/07 10:13:00;;;;;;;;;;;29.10;99.90;;;;;;5133434;27;19903;-75
2023/08/07 10:15:26;;;;;;;;;;;28.70;99.90;;;;;;5133315;27;19903;-75
2023/08/07 10:17:52;;;;;;;;;;;28.90;99.90;;;;;;5133407;27;19911;-73
2023/08/07 10:20:18;;;;;;;;;;;28.90;99.90;;;;;;5133278;27;19930;-75
2023/08/07 10:22:44;;;;;;;;;;;29.10;99.90;;;;;;5133310;27;19907;-74
2023/08/07 10:25:10;;;;;;;;;;;29.30;99.90;;;;;;5134137;27;19903;-75
2023/08/07 10:27:38;;;;;;;;;;;28.80;99.90;;;;;;5133170;27;19904;-74
2023/08/07 10:30:05;;;;;;;;;;;28.90;99.90;;;;;;5133205;27;19915;-74
2023/08/07 10:32:32;;;;;;;;;;;28.90;99.90;;;;;;5133094;27;19903;-75
2023/08/07 10:34:58;;;;;;;;;;;29.00;99.90;;;;;;5133920;27;19903;-74
2023/08/07 10:37:54;;;;;;;;;;;29.40;99.90;;;;;;5133029;27;19937;-74
2023/08/07 10:40:21;;;;;;;;;;;29.60;99.90;;;;;;5070525;28;19954;-76
2023/08/07 10:42:57;;;;;;;;;;;29.60;99.90;;;;;;5070038;28;20373;-75
2023/08/07 10:45:24;;;;;;;;;;;29.40;99.90;;;;;;5069696;28;19912;-76
2023/08/07 10:48:01;;;;;;;;;;;29.50;99.90;;;;;;5053294;28;20031;-76
2023/08/07 10:50:29;;;;;;;;;;;29.50;99.90;;;;;;5070023;28;19905;-75
2023/08/07 10:52:54;;;;;;;;;;;29.70;99.90;;;;;;5052862;28;19966;-75
2023/08/07 10:55:20;;;;;;;;;;;30.00;99.90;;;;;;5069887;28;19932;-75
2023/08/07 10:57:46;;;;;;;;;;;30.10;99.90;;;;;;5070453;28;19913;-76
2023/08/07 11:00:12;;;;;;;;;;;30.20;99.90;;;;;;5073636;28;19905;-75
2023/08/07 11:02:41;;;;;;;;;;;29.80;99.90;;;;;;5073964;28;19915;-75
2023/08/07 11:05:08;;;;;;;;;;;29.50;99.90;;;;;;5073682;28;19990;-75
2023/08/07 11:07:34;;;;;;;;;;;29.30;99.90;;;;;;5073681;28;19904;-75
2023/08/07 11:10:00;;;;;;;;;;;29.40;99.90;;;;;;5073417;28;20042;-74
2023/08/07 11:12:29;;;;;;;;;;;29.80;99.90;;;;;;5073419;28;19995;-75
2023/08/07 11:14:58;;;;;;;;;;;29.70;99.90;;;;;;5073369;28;19963;-75
2023/08/07 11:17:24;;;;;;;;;;;29.40;99.90;;;;;;5124078;27;20426;-74
2023/08/07 11:19:50;;;;;;;;;;;29.30;99.90;;;;;;5136872;27;19998;-75
2023/08/07 11:22:16;;;;;;;;;;;29.40;99.90;;;;;;5136509;27;19949;-74
2023/08/07 11:24:42;;;;;;;;;;;29.60;99.90;;;;;;5136721;27;19968;-75
2023/08/07 11:27:08;;;;;;;;;;;29.70;99.90;;;;;;5137306;27;19903;-75
2023/08/07 11:29:34;;;;;;;;;;;29.60;99.90;;;;;;5136446;27;19904;-74
2023/08/07 11:32:00;;;;;;;;;;;29.70;99.90;;;;;;5136900;27;19903;-75
2023/08/07 11:34:26;;;;;;;;;;;29.70;99.90;;;;;;5136645;27;19979;-76
2023/08/07 11:36:51;;;;;;;;;;;29.70;99.90;;;;;;5136300;27;20366;-75
2023/08/07 11:39:19;;;;;;;;;;;29.80;99.90;;;;;;5135160;27;19907;-75
2023/08/07 11:41:45;;;;;;;;;;;30.00;99.90;;;;;;5136930;27;19903;-75
2023/08/07 11:44:11;;;;;;;;;;;29.90;99.90;;;;;;5136300;27;20389;-75
2023/08/07 11:46:37;;;;;;;;;;;29.70;99.90;;;;;;5136555;27;19942;-75
2023/08/07 11:49:07;;;;;;;;;;;29.80;99.90;;;;;;5136096;27;19949;-75
2023/08/07 11:51:33;;;;;;;;;;;29.90;99.90;;;;;;5135068;27;19903;-75
2023/08/07 11:53:59;;;;;;;;;;;30.00;99.90;;;;;;5136206;27;19908;-76
2023/08/07 11:56:25;;;;;;;;;;;30.00;99.90;;;;;;5136304;27;19911;-75
2023/08/07 11:58:51;;;;;;;;;;;29.70;99.90;;;;;;5135865;27;19911;-75
2023/08/07 12:01:22;;;;;;;;;;;29.50;99.90;;;;;;5136643;27;19956;-75
2023/08/07 12:04:08;;;;;;;;;;;29.20;99.90;;;;;;5135992;27;20320;-75
2023/08/07 12:06:35;;;;;;;;;;;29.50;99.90;;;;;;5136241;27;20001;-74
2023/08/07 12:09:01;;;;;;;;;;;29.60;99.90;;;;;;5135393;27;19922;-75
2023/08/07 12:11:28;;;;;;;;;;;29.40;99.90;;;;;;5134447;27;19910;-74
2023/08/07 12:13:54;;;;;;;;;;;29.50;99.90;;;;;;5135672;27;20384;-74
2023/08/07 12:16:20;;;;;;;;;;;29.40;99.90;;;;;;5135999;27;20362;-75
2023/08/07 12:18:47;;;;;;;;;;;29.30;99.90;;;;;;5135597;27;20263;-74
2023/08/07 12:21:20;;;;;;;;;;;29.10;99.90;;;;;;5136076;27;20248;-74
2023/08/07 12:23:49;;;;;;;;;;;28.90;99.90;;;;;;5135618;27;19914;-74
2023/08/07 12:26:15;;;;;;;;;;;29.00;99.90;;;;;;5136109;27;19998;-74
2023/08/07 12:28:41;;;;;;;;;;;29.10;99.90;;;;;;5135298;27;20278;-75
2023/08/07 12:31:07;;;;;;;;;;;29.10;99.90;;;;;;5136023;27;20006;-75
2023/08/07 12:33:33;;;;;;;;;;;28.70;99.90;;;;;;5135489;27;19910;-75
2023/08/07 12:35:59;;;;;;;;;;;28.90;99.90;;;;;;5135190;27;20391;-75
2023/08/07 12:38:25;;;;;;;;;;;28.90;99.90;;;;;;5135645;27;19918;-75
2023/08/07 12:40:52;;;;;;;;;;;28.90;99.90;;;;;;5135365;27;19979;-75
2023/08/07 12:43:17;;;;;;;;;;;29.10;99.90;;;;;;5135220;27;19912;-75
2023/08/07 12:45:43;;;;;;;;;;;29.10;99.90;;;;;;5135294;27;19903;-75
2023/08/07 12:48:10;;;;;;;;;;;29.00;99.90;;;;;;5135049;27;19965;-74
2023/08/07 12:50:35;;;;;;;;;;;29.10;99.90;;;;;;5134998;27;19903;-75
2023/08/07 12:53:01;;;;;;;;;;;28.80;99.90;;;;;;5135020;27;20276;-75
2023/08/07 12:55:28;;;;;;;;;;;28.80;99.90;;;;;;5133598;27;19904;-75
2023/08/07 12:57:54;;;;;;;;;;;29.10;99.90;;;;;;5134816;27;19912;-76
2023/08/07 13:00:20;;;;;;;;;;;29.20;99.90;;;;;;5134686;27;19903;-76
2023/08/07 13:02:47;;;;;;;;;;;29.10;99.90;;;;;;5133424;27;20352;-76
2023/08/07 13:05:14;;;;;;;;;;;28.80;99.90;;;;;;5133507;27;19908;-76
2023/08/07 13:07:40;;;;;;;;;;;28.90;99.90;;;;;;5134881;27;19910;-76
2023/08/07 13:10:06;;;;;;;;;;;28.90;99.90;;;;;;5134747;27;19994;-76
2023/08/07 13:12:36;;;;;;;;;;;29.00;99.90;;;;;;5134714;27;19910;-76
2023/08/07 13:15:08;;;;;;;;;;;29.10;99.90;;;;;;5134496;27;19909;-76
2023/08/07 13:17:35;;;;;;;;;;;29.00;99.90;;;;;;5134661;27;19950;-76
2023/08/07 13:20:01;;;;;;;;;;;29.30;99.90;;;;;;5134707;27;20267;-75
2023/08/07 13:22:28;;;;;;;;;;;29.20;99.90;;;;;;5134113;27;19914;-76
2023/08/07 13:24:54;;;;;;;;;;;28.80;99.90;;;;;;5133072;27;20395;-76
2023/08/07 13:27:19;;;;;;;;;;;28.80;99.90;;;;;;5134639;27;20002;-76
2023/08/07 13:29:45;;;;;;;;;;;28.70;99.90;;;;;;5134357;27;19939;-76
2023/08/07 13:32:11;;;;;;;;;;;28.80;99.90;;;;;;5134420;27;20267;-76
2023/08/07 13:34:37;;;;;;;;;;;28.80;99.90;;;;;;5134708;27;19904;-76
2023/08/07 13:37:04;;;;;;;;;;;28.90;99.90;;;;;;5134050;27;19915;-76
2023/08/07 13:39:30;;;;;;;;;;;29.00;99.90;;;;;;5134458;27;20270;-73
2023/08/07 13:41:56;;;;;;;;;;;28.80;99.90;;;;;;5134144;27;19904;-76
2023/08/07 13:44:31;;;;;;;;;;;28.90;99.90;;;;;;5134305;27;19914;-76
2023/08/07 13:46:57;;;;;;;;;;;28.90;99.90;;;;;;5133845;27;19904;-77
2023/08/07 13:49:23;;;;;;;;;;;28.90;99.90;;;;;;5133942;27;20259;-77
2023/08/07 13:51:49;;;;;;;;;;;29.00;99.90;;;;;;5133977;27;20343;-76
2023/08/07 13:54:15;;;;;;;;;;;28.80;99.90;;;;;;5132675;27;19911;-76
2023/08/07 13:56:41;;;;;;;;;;;28.80;99.90;;;;;;5134302;27;19904;-75
2023/08/07 13:59:08;;;;;;;;;;;28.60;99.90;;;;;;5133610;27;19918;-76
2023/08/07 14:01:35;;;;;;;;;;;28.70;99.90;;;;;;5134035;27;20014;-75
2023/08/07 14:04:01;;;;;;;;;;;28.70;99.90;;;;;;5133835;27;19955;-76
2023/08/07 14:06:27;;;;;;;;;;;28.70;99.90;;;;;;5134154;27;20001;-76
2023/08/07 14:08:53;;;;;;;;;;;28.80;99.90;;;;;;5133859;27;19946;-76
2023/08/07 14:11:19;;;;;;;;;;;28.80;99.90;;;;;;5133680;27;19994;-75